KMLJ/MLJ METAR and TAF weather

Enter ICAO airport designator
Station Type Date Time Source
KMLJ METAR 2020/03/29 20:35 UTC NOAA

KMLJ 292035Z AUTO 27006KT SCT043 BKN065 BKN075 28/20 A3004 RMK AO2 PWINO


Station Type Date Time Source
KMLJ Decoded METAR 2020/03/29 20:35 UTC NOAA

Milledgeville, Baldwin County Airport, GA, United States (KMLJ) 33-09-15N 083-14-26W
Mar 29, 2020 - 04:35 PM EDT / 2020.03.29 2035 UTC
Wind: from the W (270 degrees) at 7 MPH (6 KT):0
Sky conditions: mostly cloudy
Temperature: 82 F (28 C)
Dew Point: 68 F (20 C)
Relative Humidity: 61%
Pressure (altimeter): 30.04 in. Hg (1017 hPa)
ob: KMLJ 292035Z AUTO 27006KT SCT043 BKN065 BKN075 28/20 A3004 RMK AO2 PWINO
cycle: 20

Station Type Date Time Source
KMLJ TAF UTC NOAA

Error!

Example: see airport list